Time;durP1;ratioP1;P1;durP2;ratioP2;P2;SDS_P1;SDS_P2;PMS_P1;PMS_P2;Temp;Humidity;BMP_temperature;BMP_pressure;BME280_temperature;BME280_humidity;BME280_pressure;Samples;Min_cycle;Max_cycle;Signal;HPM_P1;HPM_P2
2021/12/07 00:00:00;;;;;;;16.95;11.43;;;;;;;;;;5067985;28;20029;-73
2021/12/07 00:02:27;;;;;;;19.65;12.25;;;;;;;;;;5061065;28;20504;-74
2021/12/07 00:04:53;;;;;;;18.40;11.98;;;;;;;;;;5072218;28;20063;-74
2021/12/07 00:07:19;;;;;;;25.60;15.15;;;;;;;;;;5056392;28;20052;-74
2021/12/07 00:09:49;;;;;;;16.83;12.23;;;;;;;;;;5062060;28;20028;-74
2021/12/07 00:12:15;;;;;;;16.20;11.15;;;;;;;;;;5055764;28;20486;-74
2021/12/07 00:14:43;;;;;;;18.67;12.30;;;;;;;;;;5059416;28;20047;-75
2021/12/07 00:17:10;;;;;;;19.38;12.00;;;;;;;;;;5054953;28;20037;-75
2021/12/07 00:19:36;;;;;;;17.23;10.98;;;;;;;;;;5060042;28;20086;-74
2021/12/07 00:22:03;;;;;;;15.43;11.25;;;;;;;;;;5060285;28;20072;-75
2021/12/07 00:24:30;;;;;;;15.98;11.38;;;;;;;;;;5063960;28;20116;-74
2021/12/07 00:26:56;;;;;;;16.25;12.27;;;;;;;;;;5055990;28;20033;-75
2021/12/07 00:29:22;;;;;;;18.73;12.02;;;;;;;;;;5063836;28;20032;-75
2021/12/07 00:31:53;;;;;;;16.60;11.93;;;;;;;;;;5064114;28;20079;-74
2021/12/07 02:54:45;;;;;;;9.52;7.55;;;;;;;;;;5060228;28;20050;-72
2021/12/07 02:57:12;;;;;;;9.23;7.95;;;;;;;;;;5040249;28;20036;-72
2021/12/07 03:03:06;;;;;;;10.35;7.97;;;;;;;;;;5041590;28;20036;-74
2021/12/07 03:26:40;;;;;;;10.60;8.50;;;;;;;;;;5045595;28;20052;-73
2021/12/07 03:29:06;;;;;;;11.32;8.77;;;;;;;;;;5047294;28;20464;-73
2021/12/07 03:31:32;;;;;;;11.57;7.63;;;;;;;;;;5050730;28;20035;-74
2021/12/07 03:33:59;;;;;;;16.00;10.30;;;;;;;;;;5044372;28;20470;-73
2021/12/07 03:36:26;;;;;;;14.52;9.02;;;;;;;;;;5048430;28;20037;-73
2021/12/07 03:38:52;;;;;;;15.32;9.40;;;;;;;;;;5040468;28;20025;-72
2021/12/07 03:41:19;;;;;;;13.77;9.30;;;;;;;;;;5047445;28;20170;-73
2021/12/07 03:43:46;;;;;;;12.32;8.90;;;;;;;;;;5043749;28;20501;-72
2021/12/07 03:46:13;;;;;;;14.00;9.50;;;;;;;;;;5049440;28;20029;-73
2021/12/07 03:48:40;;;;;;;16.90;9.90;;;;;;;;;;5045953;28;20036;-73
2021/12/07 03:51:06;;;;;;;11.25;8.40;;;;;;;;;;5044213;28;20063;-73
2021/12/07 03:53:32;;;;;;;13.18;8.63;;;;;;;;;;5044179;28;20108;-73
2021/12/07 03:55:59;;;;;;;13.68;9.35;;;;;;;;;;5050101;28;20048;-73
2021/12/07 03:58:25;;;;;;;12.30;9.65;;;;;;;;;;5069045;28;20569;-73
2021/12/07 04:00:51;;;;;;;17.25;10.20;;;;;;;;;;5066844;28;20064;-73
2021/12/07 04:03:18;;;;;;;12.65;8.02;;;;;;;;;;5067106;28;20032;-73
2021/12/07 04:05:47;;;;;;;13.52;9.73;;;;;;;;;;5066157;28;20021;-73
2021/12/07 04:08:14;;;;;;;13.60;8.70;;;;;;;;;;5054568;28;20045;-72
2021/12/07 04:10:40;;;;;;;18.67;8.85;;;;;;;;;;5064672;28;20434;-73
2021/12/07 04:13:06;;;;;;;18.17;10.35;;;;;;;;;;5057106;28;20406;-73
2021/12/07 04:15:32;;;;;;;15.82;8.75;;;;;;;;;;5064544;28;20032;-72
2021/12/07 04:17:58;;;;;;;13.15;9.35;;;;;;;;;;5053444;28;20052;-73
2021/12/07 04:20:24;;;;;;;13.48;9.32;;;;;;;;;;5063222;28;20028;-73
2021/12/07 04:22:50;;;;;;;16.88;9.55;;;;;;;;;;5059634;28;20029;-73
2021/12/07 04:25:17;;;;;;;12.73;8.90;;;;;;;;;;5064443;28;20040;-73
2021/12/07 04:27:44;;;;;;;16.27;9.60;;;;;;;;;;5062607;28;20032;-73
2021/12/07 04:30:12;;;;;;;16.98;9.40;;;;;;;;;;5068985;28;20056;-73
2021/12/07 04:32:38;;;;;;;17.67;9.07;;;;;;;;;;5059358;28;20098;-73
2021/12/07 04:35:04;;;;;;;18.13;8.85;;;;;;;;;;5060478;28;20064;-73
2021/12/07 04:37:30;;;;;;;14.88;8.75;;;;;;;;;;5047802;28;20033;-73
2021/12/07 04:39:56;;;;;;;18.02;10.30;;;;;;;;;;5072798;28;20085;-73
2021/12/07 04:42:25;;;;;;;13.52;8.27;;;;;;;;;;5048989;28;20104;-73
2021/12/07 04:44:54;;;;;;;19.60;8.70;;;;;;;;;;5063259;28;20028;-73
2021/12/07 04:47:30;;;;;;;16.25;8.00;;;;;;;;;;5048569;28;20035;-73
2021/12/07 04:50:21;;;;;;;13.05;7.90;;;;;;;;;;5068147;28;20044;-73
2021/12/07 04:58:11;;;;;;;20.83;8.32;;;;;;;;;;5059880;28;20048;-73
2021/12/07 05:00:37;;;;;;;14.13;8.02;;;;;;;;;;5061179;28;20087;-73
2021/12/07 05:03:08;;;;;;;19.75;8.77;;;;;;;;;;5067193;28;20052;-73
2021/12/07 05:05:41;;;;;;;19.35;8.73;;;;;;;;;;5065487;28;20557;-73
2021/12/07 05:08:10;;;;;;;15.18;9.43;;;;;;;;;;5057585;28;20033;-73
2021/12/07 05:11:00;;;;;;;23.15;8.43;;;;;;;;;;5060542;28;20492;-73
2021/12/07 05:13:32;;;;;;;16.52;8.95;;;;;;;;;;5052866;28;20037;-73
2021/12/07 05:16:11;;;;;;;12.93;8.75;;;;;;;;;;5070361;28;20506;-73
2021/12/07 05:24:21;;;;;;;12.95;6.95;;;;;;;;;;5057305;28;20040;-72
2021/12/07 05:37:50;;;;;;;17.00;7.65;;;;;;;;;;5034398;28;20773;-73
2021/12/07 05:40:21;;;;;;;16.70;7.78;;;;;;;;;;5065347;28;20028;-73
2021/12/07 05:42:47;;;;;;;13.57;7.30;;;;;;;;;;5048394;28;20477;-73
2021/12/07 05:45:15;;;;;;;16.88;8.55;;;;;;;;;;5062636;28;20024;-74
2021/12/07 05:47:42;;;;;;;16.20;7.10;;;;;;;;;;5045102;28;20025;-74
2021/12/07 05:50:08;;;;;;;22.02;11.15;;;;;;;;;;5058151;28;20029;-77
2021/12/07 05:52:34;;;;;;;34.15;16.60;;;;;;;;;;5064177;28;20039;-77
2021/12/07 05:55:00;;;;;;;19.35;7.53;;;;;;;;;;5068998;28;20040;-76
2021/12/07 05:57:26;;;;;;;17.27;6.65;;;;;;;;;;5055270;28;20036;-75
2021/12/07 05:59:52;;;;;;;11.55;6.03;;;;;;;;;;5064502;28;20035;-74
2021/12/07 06:02:18;;;;;;;20.17;7.50;;;;;;;;;;5066520;28;20032;-75
2021/12/07 06:04:44;;;;;;;17.65;6.60;;;;;;;;;;5045311;28;20052;-75
2021/12/07 06:07:10;;;;;;;15.50;6.60;;;;;;;;;;5068073;28;20082;-76
2021/12/07 06:09:37;;;;;;;16.58;7.25;;;;;;;;;;5065362;28;20033;-76
2021/12/07 06:12:03;;;;;;;15.55;7.72;;;;;;;;;;5057290;28;20037;-75
2021/12/07 06:14:34;;;;;;;15.20;7.90;;;;;;;;;;5065834;28;20067;-75
2021/12/07 06:17:00;;;;;;;18.15;8.05;;;;;;;;;;5047352;28;20041;-76
2021/12/07 06:19:26;;;;;;;20.92;9.25;;;;;;;;;;5061960;28;20033;-76
2021/12/07 06:21:52;;;;;;;17.92;7.22;;;;;;;;;;5064810;28;20067;-76
2021/12/07 06:24:18;;;;;;;14.00;7.25;;;;;;;;;;5068351;28;20025;-76
2021/12/07 06:26:44;;;;;;;47.00;18.70;;;;;;;;;;5061205;28;20079;-76
2021/12/07 06:29:11;;;;;;;17.15;8.98;;;;;;;;;;5058894;28;20120;-77
2021/12/07 06:31:37;;;;;;;19.25;8.52;;;;;;;;;;5063209;28;20026;-76
2021/12/07 06:34:03;;;;;;;19.38;7.78;;;;;;;;;;5048808;28;20040;-76
2021/12/07 06:36:29;;;;;;;16.25;7.30;;;;;;;;;;5045966;28;20060;-75
2021/12/07 06:38:55;;;;;;;11.07;6.93;;;;;;;;;;5062586;28;20126;-75
2021/12/07 06:41:21;;;;;;;17.48;6.85;;;;;;;;;;5062875;28;20020;-75
2021/12/07 06:43:47;;;;;;;28.00;8.30;;;;;;;;;;5072355;28;20036;-75
2021/12/07 06:46:13;;;;;;;19.15;7.40;;;;;;;;;;5066146;28;20029;-75
2021/12/07 06:48:39;;;;;;;14.80;7.50;;;;;;;;;;5069833;28;20040;-75
2021/12/07 06:51:05;;;;;;;15.48;7.35;;;;;;;;;;5062046;28;20041;-75
2021/12/07 06:53:35;;;;;;;18.55;7.97;;;;;;;;;;5064483;28;20391;-75
2021/12/07 06:56:05;;;;;;;20.63;7.28;;;;;;;;;;5061756;28;20049;-75
2021/12/07 06:58:32;;;;;;;21.60;7.60;;;;;;;;;;5065408;28;20064;-74
2021/12/07 07:00:58;;;;;;;17.95;7.85;;;;;;;;;;5064347;28;20017;-75
2021/12/07 07:03:24;;;;;;;20.05;7.28;;;;;;;;;;5063773;28;20170;-75
2021/12/07 07:05:50;;;;;;;18.75;7.97;;;;;;;;;;5064735;28;20115;-75
2021/12/07 07:08:16;;;;;;;20.52;8.40;;;;;;;;;;5065206;28;20039;-74
2021/12/07 07:10:42;;;;;;;20.30;7.68;;;;;;;;;;5065837;28;20033;-75
2021/12/07 07:13:08;;;;;;;15.18;7.63;;;;;;;;;;5057759;28;20440;-75
2021/12/07 07:15:34;;;;;;;19.10;6.53;;;;;;;;;;5066771;28;20115;-75
2021/12/07 07:18:00;;;;;;;12.80;6.55;;;;;;;;;;5049151;28;20052;-74
2021/12/07 07:20:27;;;;;;;16.88;7.63;;;;;;;;;;5058777;28;20033;-75
2021/12/07 07:22:53;;;;;;;13.63;6.88;;;;;;;;;;5062072;28;20028;-75
2021/12/07 07:25:19;;;;;;;21.23;7.50;;;;;;;;;;5052117;28;20176;-75
2021/12/07 07:27:46;;;;;;;13.48;6.95;;;;;;;;;;5063236;28;20102;-74
2021/12/07 07:30:13;;;;;;;13.65;6.97;;;;;;;;;;5067721;28;20111;-76
2021/12/07 07:32:39;;;;;;;20.48;8.20;;;;;;;;;;5067016;28;20059;-75
2021/12/07 07:35:06;;;;;;;18.40;8.82;;;;;;;;;;5057537;28;20040;-75
2021/12/07 07:37:32;;;;;;;16.23;8.05;;;;;;;;;;5061728;28;20028;-75
2021/12/07 07:39:58;;;;;;;20.63;10.00;;;;;;;;;;5064328;28;20050;-75
2021/12/07 07:42:24;;;;;;;22.77;9.63;;;;;;;;;;5064704;28;20032;-74
2021/12/07 07:44:50;;;;;;;31.55;12.32;;;;;;;;;;5064743;28;20025;-75
2021/12/07 07:47:16;;;;;;;51.28;22.02;;;;;;;;;;5066101;28;20082;-75
2021/12/07 07:49:42;;;;;;;51.33;20.40;;;;;;;;;;5058546;28;20036;-75
2021/12/07 07:52:08;;;;;;;41.00;17.55;;;;;;;;;;5065147;28;20482;-74
2021/12/07 07:54:34;;;;;;;64.32;27.48;;;;;;;;;;5065873;28;20555;-75
2021/12/07 07:57:00;;;;;;;39.22;14.68;;;;;;;;;;5064685;28;20064;-75
2021/12/07 07:59:26;;;;;;;25.27;10.43;;;;;;;;;;5063984;28;20025;-75
2021/12/07 08:01:52;;;;;;;19.70;9.82;;;;;;;;;;5055344;28;20108;-74
2021/12/07 08:04:18;;;;;;;16.40;7.55;;;;;;;;;;5061583;28;20058;-74
2021/12/07 08:06:44;;;;;;;15.85;6.43;;;;;;;;;;5049339;28;20020;-75
2021/12/07 08:09:10;;;;;;;11.95;6.13;;;;;;;;;;5061461;28;20024;-75
2021/12/07 08:11:37;;;;;;;18.48;5.38;;;;;;;;;;5036517;28;20116;-75
2021/12/07 08:14:03;;;;;;;22.25;5.90;;;;;;;;;;5063554;28;20021;-76
2021/12/07 08:16:29;;;;;;;14.68;5.97;;;;;;;;;;5063347;28;20032;-75
2021/12/07 08:18:55;;;;;;;12.88;5.68;;;;;;;;;;5044930;28;20127;-75
2021/12/07 08:21:21;;;;;;;12.38;6.00;;;;;;;;;;5054032;28;20082;-75
2021/12/07 08:23:47;;;;;;;18.77;5.38;;;;;;;;;;5058858;28;20376;-75
2021/12/07 08:26:15;;;;;;;15.65;4.60;;;;;;;;;;5057226;28;20078;-74
2021/12/07 08:28:41;;;;;;;20.30;4.50;;;;;;;;;;5064966;28;20056;-75
2021/12/07 08:31:08;;;;;;;8.73;3.15;;;;;;;;;;5072785;28;20470;-74
2021/12/07 08:33:34;;;;;;;18.52;5.47;;;;;;;;;;5065588;28;20092;-74
2021/12/07 08:36:00;;;;;;;17.02;3.70;;;;;;;;;;5062103;28;20033;-75
2021/12/07 08:38:27;;;;;;;14.75;3.67;;;;;;;;;;5061884;28;20041;-75
2021/12/07 08:40:55;;;;;;;9.70;3.45;;;;;;;;;;5059652;28;20032;-74
2021/12/07 08:43:23;;;;;;;15.50;4.22;;;;;;;;;;5060134;28;20082;-74
2021/12/07 08:45:49;;;;;;;11.77;3.65;;;;;;;;;;5060373;28;20371;-74
2021/12/07 08:48:16;;;;;;;16.63;4.53;;;;;;;;;;5065635;28;20045;-74
2021/12/07 08:50:44;;;;;;;20.85;4.47;;;;;;;;;;5056033;28;20107;-75
2021/12/07 08:53:12;;;;;;;22.38;4.90;;;;;;;;;;5057593;28;20025;-75
2021/12/07 09:01:09;;;;;;;13.85;3.97;;;;;;;;;;5059309;28;20548;-75
2021/12/07 09:03:35;;;;;;;11.15;3.60;;;;;;;;;;5064519;28;20424;-75
2021/12/07 09:06:01;;;;;;;11.02;4.25;;;;;;;;;;5047664;28;20032;-75
2021/12/07 09:08:27;;;;;;;16.20;5.07;;;;;;;;;;5062696;28;20435;-75
2021/12/07 09:10:53;;;;;;;8.25;3.42;;;;;;;;;;5045500;28;20028;-74
2021/12/07 09:13:20;;;;;;;14.93;3.45;;;;;;;;;;5061294;28;20041;-75
2021/12/07 09:15:46;;;;;;;15.90;3.80;;;;;;;;;;5064336;28;20024;-75
2021/12/07 09:18:12;;;;;;;13.20;3.30;;;;;;;;;;5064592;28;20036;-75
2021/12/07 09:20:39;;;;;;;15.98;3.00;;;;;;;;;;5059284;28;20029;-76
2021/12/07 09:23:05;;;;;;;25.77;10.25;;;;;;;;;;5067751;28;20031;-81
2021/12/07 09:25:31;;;;;;;15.48;4.97;;;;;;;;;;5063324;28;20697;-75
2021/12/07 09:27:57;;;;;;;20.98;4.57;;;;;;;;;;5063062;28;20143;-75
2021/12/07 09:30:23;;;;;;;16.45;5.35;;;;;;;;;;5043564;28;20041;-75
2021/12/07 09:32:50;;;;;;;14.13;3.47;;;;;;;;;;5057780;28;20060;-76
2021/12/07 09:35:16;;;;;;;16.75;4.40;;;;;;;;;;5066511;28;20040;-75
2021/12/07 09:37:42;;;;;;;17.63;6.10;;;;;;;;;;5065806;28;20400;-75
2021/12/07 09:40:11;;;;;;;14.38;3.40;;;;;;;;;;5049355;28;20041;-75
2021/12/07 09:42:38;;;;;;;34.42;5.38;;;;;;;;;;5064714;28;20044;-75
2021/12/07 09:45:05;;;;;;;17.13;3.67;;;;;;;;;;5092104;28;20036;-75
2021/12/07 09:47:31;;;;;;;17.85;3.35;;;;;;;;;;5068624;28;20036;-75
2021/12/07 09:49:57;;;;;;;21.42;4.70;;;;;;;;;;5069069;28;20101;-75
2021/12/07 09:52:24;;;;;;;15.35;3.95;;;;;;;;;;5066869;28;20074;-75
2021/12/07 09:54:51;;;;;;;14.85;4.70;;;;;;;;;;5063610;28;20078;-76
2021/12/07 09:57:17;;;;;;;15.05;3.85;;;;;;;;;;5070349;28;20036;-75
2021/12/07 09:59:43;;;;;;;19.85;4.53;;;;;;;;;;5066332;28;20099;-76
2021/12/07 10:02:09;;;;;;;14.85;5.15;;;;;;;;;;5059543;28;20471;-75
2021/12/07 10:04:35;;;;;;;19.65;4.78;;;;;;;;;;5045910;28;20067;-76
2021/12/07 10:07:02;;;;;;;13.98;4.53;;;;;;;;;;5068364;28;20023;-75
2021/12/07 10:09:28;;;;;;;18.55;3.70;;;;;;;;;;5062147;28;20033;-75
2021/12/07 10:11:54;;;;;;;15.15;4.88;;;;;;;;;;5057508;28;20438;-74
2021/12/07 10:14:21;;;;;;;14.95;3.95;;;;;;;;;;5068541;28;20429;-75
2021/12/07 10:16:49;;;;;;;14.98;3.40;;;;;;;;;;5053907;28;20559;-75
2021/12/07 10:19:31;;;;;;;12.73;3.05;;;;;;;;;;5063943;28;20072;-75
2021/12/07 10:22:07;;;;;;;16.80;4.57;;;;;;;;;;5072812;28;20056;-75
2021/12/07 10:24:39;;;;;;;16.85;4.25;;;;;;;;;;5073819;28;20047;-75
2021/12/07 10:27:06;;;;;;;14.20;3.20;;;;;;;;;;5067364;28;20025;-75
2021/12/07 10:29:32;;;;;;;13.85;4.35;;;;;;;;;;5074012;28;20035;-74
2021/12/07 10:32:01;;;;;;;19.67;5.07;;;;;;;;;;5072841;28;20184;-74
2021/12/07 10:34:29;;;;;;;25.17;4.65;;;;;;;;;;5073883;28;20036;-75
2021/12/07 10:36:57;;;;;;;16.77;3.72;;;;;;;;;;5069967;28;20020;-75
2021/12/07 10:39:23;;;;;;;23.58;4.45;;;;;;;;;;5073268;28;20035;-75
2021/12/07 10:41:54;;;;;;;15.13;3.17;;;;;;;;;;5068010;28;20032;-75
2021/12/07 10:44:27;;;;;;;16.52;3.20;;;;;;;;;;5065349;28;20090;-75
2021/12/07 10:47:05;;;;;;;19.23;2.70;;;;;;;;;;5065476;28;20028;-75
2021/12/07 10:49:43;;;;;;;15.13;2.65;;;;;;;;;;5050635;28;20016;-75
2021/12/07 10:52:14;;;;;;;9.50;2.85;;;;;;;;;;5065400;28;20493;-75
2021/12/07 10:54:42;;;;;;;17.23;2.95;;;;;;;;;;5066797;28;20021;-75
2021/12/07 10:57:09;;;;;;;15.55;3.03;;;;;;;;;;5059762;28;20081;-75
2021/12/07 10:59:36;;;;;;;9.68;2.60;;;;;;;;;;5062988;28;20445;-76
2021/12/07 11:02:13;;;;;;;45.72;18.48;;;;;;;;;;5047071;28;20025;-74
2021/12/07 11:04:40;;;;;;;17.77;3.83;;;;;;;;;;5064990;28;20036;-75
2021/12/07 11:07:18;;;;;;;12.07;2.47;;;;;;;;;;5059399;28;20060;-75
2021/12/07 11:09:47;;;;;;;10.32;2.40;;;;;;;;;;5064247;28;20536;-75
2021/12/07 11:12:15;;;;;;;7.90;2.63;;;;;;;;;;5066411;28;20100;-75
2021/12/07 11:14:50;;;;;;;46.00;12.32;;;;;;;;;;5066028;28;20120;-75
2021/12/07 11:17:18;;;;;;;7.32;1.90;;;;;;;;;;5063075;28;20687;-75
2021/12/07 11:19:44;;;;;;;11.70;3.08;;;;;;;;;;5064218;28;20033;-76
2021/12/07 11:22:13;;;;;;;14.40;3.25;;;;;;;;;;5052093;28;20092;-75
2021/12/07 11:24:40;;;;;;;11.90;2.30;;;;;;;;;;5062767;28;20073;-74
2021/12/07 11:29:59;;;;;;;17.85;2.58;;;;;;;;;;5061074;28;20031;-75
2021/12/07 11:32:25;;;;;;;12.98;2.10;;;;;;;;;;5067032;28;20548;-75
2021/12/07 11:34:51;;;;;;;8.20;2.50;;;;;;;;;;5046035;28;20078;-76
2021/12/07 11:37:17;;;;;;;14.45;2.58;;;;;;;;;;5064757;28;20032;-75
2021/12/07 11:39:49;;;;;;;17.63;2.95;;;;;;;;;;5048293;28;20090;-76
2021/12/07 11:42:21;;;;;;;13.40;3.40;;;;;;;;;;5051700;28;20170;-75
2021/12/07 11:44:47;;;;;;;13.43;3.00;;;;;;;;;;5067441;28;20024;-76
2021/12/07 11:47:13;;;;;;;12.45;2.72;;;;;;;;;;5061031;28;20047;-76
2021/12/07 11:49:39;;;;;;;9.88;2.53;;;;;;;;;;5060642;28;20479;-76
2021/12/07 11:52:07;;;;;;;11.63;2.45;;;;;;;;;;5060369;28;20069;-76
2021/12/07 11:54:35;;;;;;;15.63;3.10;;;;;;;;;;5061477;28;20036;-75
2021/12/07 11:57:02;;;;;;;15.25;3.55;;;;;;;;;;5059478;28;20445;-76
2021/12/07 11:59:28;;;;;;;13.10;3.13;;;;;;;;;;5048749;28;20039;-77
2021/12/07 12:01:54;;;;;;;59.38;26.27;;;;;;;;;;5060927;28;20033;-77
2021/12/07 12:04:21;;;;;;;34.90;12.13;;;;;;;;;;5065573;28;20021;-76
2021/12/07 12:06:51;;;;;;;19.45;3.92;;;;;;;;;;5062601;28;20032;-77
2021/12/07 12:09:18;;;;;;;12.63;3.10;;;;;;;;;;5067163;28;20510;-74
2021/12/07 12:12:02;;;;;;;11.57;3.83;;;7.50;99.90;;;;;;5065253;28;20395;-77
2021/12/07 12:14:45;;;;;;;11.40;3.35;;;;;;;;;;5068318;28;20112;-77
2021/12/07 12:17:18;;;;;;;20.70;3.50;;;;;;;;;;5064273;28;20119;-77
2021/12/07 12:19:47;;;;;;;12.90;2.85;;;;;;;;;;5062404;28;20052;-76
2021/12/07 12:22:16;;;;;;;13.27;3.05;;;;;;;;;;5066611;28;20573;-77
2021/12/07 12:24:48;;;;;;;13.82;4.22;;;;;;;;;;5065130;28;20134;-76
2021/12/07 12:27:18;;;;;;;15.80;3.08;;;;;;;;;;5064208;28;20025;-75
2021/12/07 12:29:45;;;;;;;12.57;3.22;;;;;;;;;;5062396;28;20040;-74
2021/12/07 12:32:12;;;;;;;15.00;3.25;;;;;;;;;;5042779;28;20111;-75
2021/12/07 12:34:47;;;;;;;11.50;3.00;;;;;;;;;;5060523;28;20619;-75
2021/12/07 12:37:20;;;;;;;14.27;3.70;;;;;;;;;;5067224;28;20497;-74
2021/12/07 12:40:05;;;;;;;13.10;3.55;;;;;;;;;;5069459;28;20060;-75
2021/12/07 12:42:35;;;;;;;13.88;3.00;;;;;;;;;;5059618;28;20424;-75
2021/12/07 12:45:27;;;;;;;16.48;3.47;;;;;;;;;;5064307;28;20438;-74
2021/12/07 12:47:55;;;;;;;10.23;2.83;;;;;;;;;;5042214;28;20608;-75
2021/12/07 12:50:27;;;;;;;12.48;2.47;;;;;;;;;;5061710;28;20028;-74
2021/12/07 12:52:56;;;;;;;20.30;3.03;;;;;;;;;;5059853;28;20470;-75
2021/12/07 12:55:36;;;;;;;12.45;2.65;;;;;;;;;;5056307;28;20515;-75
2021/12/07 12:58:04;;;;;;;15.32;2.85;;;;;;;;;;5056870;28;20033;-75
2021/12/07 13:00:48;;;;;;;13.00;3.05;;;;;;;;;;5059875;28;20099;-74
2021/12/07 13:03:15;;;;;;;10.35;2.22;;;;;;;;;;5069823;28;20036;-74
2021/12/07 13:05:44;;;;;;;16.85;3.22;;;;;;;;;;5060072;28;20020;-75
2021/12/07 13:08:15;;;;;;;11.02;2.55;;;;;;;;;;5047254;28;20108;-75
2021/12/07 13:11:05;;;;;;;10.02;2.50;;;;;;;;;;5058514;28;20036;-74
2021/12/07 13:13:32;;;;;;;12.80;2.13;;;;;;;;;;5054946;28;20047;-75
2021/12/07 13:15:59;;;;;;;10.00;2.33;;;;;;;;;;5063989;28;20395;-75
2021/12/07 13:18:32;;;;;;;25.85;5.78;;;;;;;;;;5060209;28;20037;-75
2021/12/07 13:20:58;;;;;;;34.42;11.27;;;;;;;;;;5070179;28;20043;-74
2021/12/07 13:23:31;;;;;;;41.53;12.05;;;;;;;;;;5061984;28;20040;-74
2021/12/07 13:25:57;;;;;;;19.02;5.50;;;;;;;;;;5065208;28;20037;-75
2021/12/07 13:28:24;;;;;;;18.10;6.88;;;;;;;;;;5064186;28;20032;-75
2021/12/07 13:30:59;;;;;;;21.45;6.47;;;;;;;;;;5041496;28;20035;-75
2021/12/07 13:33:31;;;;;;;17.50;5.95;;;;;;;;;;5065331;28;20040;-77
2021/12/07 13:35:58;;;;;;;25.35;5.78;;;;;;;;;;5064165;28;20379;-77
2021/12/07 13:38:26;;;;;;;18.58;3.17;;;;;;;;;;5070053;28;20032;-76
2021/12/07 13:41:14;;;;;;;25.55;4.47;;;;;;;;;;5054370;28;20656;-77
2021/12/07 13:43:42;;;;;;;16.25;3.42;;;;;;;;;;5058925;28;20810;-77
2021/12/07 13:46:09;;;;;;;15.50;3.25;;;;;;;;;;5064359;28;20471;-77
2021/12/07 13:48:35;;;;;;;12.55;2.67;;;;;;;;;;5052061;28;20070;-77
2021/12/07 13:51:02;;;;;;;11.90;4.00;;;;;;;;;;5063509;28;20047;-77
2021/12/07 13:53:28;;;;;;;17.23;3.40;;;;;;;;;;5059139;28;20065;-77
2021/12/07 13:55:54;;;;;;;11.30;3.33;;;;;;;;;;5052659;28;20050;-77
2021/12/07 13:58:20;;;;;;;11.85;3.08;;;;;;;;;;5067706;28;20056;-76
2021/12/07 14:00:46;;;;;;;17.88;5.53;;;;;;;;;;5062665;28;20025;-77
2021/12/07 14:03:14;;;;;;;14.13;3.15;;;;;;;;;;5059726;28;20510;-77
2021/12/07 14:05:42;;;;;;;11.27;3.15;;;;;;;;;;5062212;28;20076;-76
2021/12/07 14:08:09;;;;;;;40.60;19.05;;;;;;;;;;5059271;28;20032;-77
2021/12/07 14:10:37;;;;;;;24.65;7.82;;;;;;;;;;5065173;28;20230;-77
2021/12/07 14:13:04;;;;;;;17.35;4.82;;;;;;;;;;5053787;28;20039;-77
2021/12/07 14:15:33;;;;;;;15.30;3.80;;;;;;;;;;5067941;28;20508;-78
2021/12/07 14:18:01;;;;;;;14.70;3.58;;;;;;;;;;5064795;28;20064;-77
2021/12/07 14:20:30;;;;;;;22.15;5.90;;;;;;;;;;5062535;28;20025;-76
2021/12/07 14:22:56;;;;;;;14.00;3.30;;;;;;;;;;5067827;28;20114;-76
2021/12/07 14:25:22;;;;;;;14.50;3.92;;;;;;;;;;5055359;28;20029;-76
2021/12/07 14:27:49;;;;;;;13.45;3.72;;;;;;;;;;5061280;28;20457;-77
2021/12/07 14:30:16;;;;;;;16.40;4.95;;;;;;;;;;5066322;28;20032;-78
2021/12/07 14:32:43;;;;;;;14.57;3.45;;;;;;;;;;5049566;28;20037;-77
2021/12/07 14:35:10;;;;;;;30.20;12.32;;;;;;;;;;5065850;28;20490;-74
2021/12/07 14:37:36;;;;;;;23.63;7.00;;;;;;;;;;5061723;28;20068;-77
2021/12/07 14:40:03;;;;;;;13.63;4.20;;;;;;;;;;5050745;28;20439;-74
2021/12/07 14:42:31;;;;;;;20.80;6.68;;;;;;;;;;5071738;28;20025;-74
2021/12/07 14:44:58;;;;;;;15.68;5.07;;;;;;;;;;5060489;28;20032;-78
2021/12/07 14:47:24;;;;;;;17.88;5.28;;;;;;;;;;5061205;28;20067;-77
2021/12/07 14:50:00;;;;;;;16.02;4.93;;;;;;;;;;5058544;28;20522;-74
2021/12/07 14:52:26;;;;;;;27.25;5.20;;;;;;;;;;5071207;28;20513;-74
2021/12/07 14:54:52;;;;;;;18.10;5.57;;;;;;;;;;5062648;28;20086;-74
2021/12/07 14:57:20;;;;;;;21.85;6.63;;;;;;;;;;5071308;28;20052;-77
2021/12/07 14:59:48;;;;;;;20.65;6.53;;;;;;;;;;5051375;28;20040;-75
2021/12/07 15:02:14;;;;;;;20.40;6.55;;;;;;;;;;5069181;28;20466;-74
2021/12/07 15:04:40;;;;;;;25.67;6.72;;;;;;;;;;5058909;28;20406;-76
2021/12/07 15:07:14;;;;;;;19.33;7.40;;;;;;;;;;5064625;28;20097;-75
2021/12/07 15:09:41;;;;;;;26.00;9.73;;;;;;;;;;5054303;28;20032;-75
2021/12/07 15:12:08;;;;;;;26.55;9.55;;;;;;;;;;5050114;28;20479;-75
2021/12/07 15:14:35;;;;;;;34.28;13.00;;;;;;;;;;5068978;28;20039;-75
2021/12/07 15:17:03;;;;;;;20.38;7.55;;;;;;;;;;5059876;28;20497;-75
2021/12/07 15:19:29;;;;;;;38.78;8.25;;;;;;;;;;5055342;28;20056;-74
2021/12/07 15:21:56;;;;;;;20.90;8.85;;;;;;;;;;5066523;28;20036;-75
2021/12/07 15:24:24;;;;;;;23.17;7.50;;;;;;;;;;5065264;28;20072;-75
2021/12/07 15:26:51;;;;;;;19.45;8.70;;;;;;;;;;5056355;28;20039;-73
2021/12/07 15:29:21;;;;;;;21.73;8.65;;;;;;;;;;5065447;28;20033;-75
2021/12/07 15:31:52;;;;;;;22.83;8.63;;;;;;;;;;5053547;28;20028;-75
2021/12/07 15:34:19;;;;;;;22.65;8.57;;;;;;;;;;5066723;28;20486;-76
2021/12/07 15:36:48;;;;;;;22.88;8.23;;;;;;;;;;5063758;28;20482;-76
2021/12/07 15:39:21;;;;;;;24.80;8.77;;;;;;;;;;5063861;28;20534;-75
2021/12/07 15:41:51;;;;;;;16.17;6.90;;;;;;;;;;5059853;28;20036;-76
2021/12/07 15:44:19;;;;;;;27.38;8.98;;;;;;;;;;5058139;28;20036;-77
2021/12/07 15:46:59;;;;;;;21.13;7.20;;;;;;;;;;5057369;28;20037;-76
2021/12/07 15:49:27;;;;;;;23.88;7.90;;;;;;;;;;5067029;28;20029;-76
2021/12/07 15:51:55;;;;;;;22.95;9.43;;;;;;;;;;5067476;28;20078;-78
2021/12/07 15:54:21;;;;;;;35.28;12.07;;;;;;;;;;5065283;28;20402;-80
2021/12/07 15:57:07;;;;;;;26.08;7.57;;;;;;;;;;5065981;28;20048;-76
2021/12/07 15:59:37;;;;;;;24.17;7.72;;;;;;;;;;5074871;28;20039;-76
2021/12/07 16:02:04;;;;;;;23.10;7.72;;;;;;;;;;5057133;28;20043;-77
2021/12/07 16:04:36;;;;;;;28.85;7.22;;;;;;;;;;5066315;28;20601;-76
2021/12/07 16:07:03;;;;;;;30.23;7.93;;;;;;;;;;5060416;28;20442;-76
2021/12/07 16:09:29;;;;;;;38.15;9.73;;;;;;;;;;5063492;28;20033;-76
2021/12/07 16:12:09;;;;;;;23.25;9.25;;;;;;;;;;5042025;28;20551;-75
2021/12/07 16:14:35;;;;;;;20.02;7.78;;;;;;;;;;5058384;28;20048;-76
2021/12/07 16:17:01;;;;;;;28.88;9.50;;;;;;;;;;5063921;28;20478;-77
2021/12/07 16:19:27;;;;;;;38.15;11.98;;;;;;;;;;5061647;28;20054;-76
2021/12/07 16:21:53;;;;;;;18.90;7.40;;;;;;;;;;5062895;28;20107;-76
2021/12/07 16:24:21;;;;;;;35.80;12.23;;;;;;;;;;5050822;28;20020;-77
2021/12/07 16:26:50;;;;;;;28.58;10.30;;;;;;;;;;5053808;28;20037;-76
2021/12/07 16:29:17;;;;;;;35.03;12.70;;;;;;;;;;5063537;28;20022;-76
2021/12/07 16:31:43;;;;;;;25.50;9.68;;;;;;;;;;5058710;28;20045;-76
2021/12/07 16:34:09;;;;;;;19.73;7.78;;;;;;;;;;5067361;28;20524;-76
2021/12/07 16:36:35;;;;;;;26.23;8.68;;;;;;;;;;5058620;28;20114;-77
2021/12/07 16:39:04;;;;;;;25.42;6.43;;;;;;;;;;5065191;28;20083;-77
2021/12/07 16:41:30;;;;;;;23.25;7.10;;;;;;;;;;5068000;28;20033;-75
2021/12/07 16:43:56;;;;;;;22.63;7.38;;;;;;;;;;5060835;28;20041;-76
2021/12/07 16:46:22;;;;;;;21.42;6.63;;;;;;;;;;5063628;28;20374;-76
2021/12/07 16:48:49;;;;;;;27.60;9.50;;;;;;;;;;5061221;28;20063;-76
2021/12/07 16:51:15;;;;;;;21.58;8.25;;;;;;;;;;5058261;28;20056;-76
2021/12/07 16:53:41;;;;;;;21.30;7.75;;;;;;;;;;5063767;28;20127;-75
2021/12/07 16:56:08;;;;;;;20.98;7.35;;;;;;;;;;5063086;28;20044;-76
2021/12/07 16:58:35;;;;;;;22.05;7.28;;;;;;;;;;5056787;28;20466;-76
2021/12/07 17:01:01;;;;;;;23.80;6.20;;;;;;;;;;5067330;28;20043;-76
2021/12/07 17:03:27;;;;;;;28.25;9.07;;;;;;;;;;5058573;28;20401;-75
2021/12/07 17:05:54;;;;;;;19.70;5.88;;;;;;;;;;5056322;28;20737;-75
2021/12/07 17:08:21;;;;;;;17.85;7.57;;;;;;;;;;5055866;28;20557;-75
2021/12/07 17:10:47;;;;;;;17.90;7.38;;;;;;;;;;5057679;28;20036;-75
2021/12/07 17:13:13;;;;;;;28.35;9.75;;;;;;;;;;5056711;28;20052;-76
2021/12/07 17:15:41;;;;;;;18.48;6.75;;;;;;;;;;5068129;28;20047;-75
2021/12/07 17:18:07;;;;;;;32.80;9.60;;;;;;;;;;5042291;28;20106;-75
2021/12/07 17:20:33;;;;;;;20.75;6.07;;;;;;;;;;5064088;28;20032;-75
2021/12/07 17:22:59;;;;;;;22.23;6.25;;;;;;;;;;5061614;28;20475;-75
2021/12/07 17:25:25;;;;;;;20.83;6.18;;;;;;;;;;5064969;28;20112;-75
2021/12/07 17:27:54;;;;;;;18.85;6.70;;;;;;;;;;5053396;28;20040;-75
2021/12/07 17:30:21;;;;;;;20.30;5.63;;;;;;;;;;5062377;28;20035;-75
2021/12/07 17:32:47;;;;;;;16.45;4.68;;;;;;;;;;5061683;28;20409;-76
2021/12/07 17:35:13;;;;;;;22.60;5.78;;;;;;;;;;5055418;28;20125;-76
2021/12/07 17:37:40;;;;;;;22.05;6.13;;;;;;;;;;5055269;28;20086;-75
2021/12/07 17:40:07;;;;;;;23.70;7.65;;;;;;;;;;5054495;28;20032;-75
2021/12/07 17:42:33;;;;;;;26.90;5.70;;;;;;;;;;5060998;28;20525;-76
2021/12/07 17:45:00;;;;;;;18.63;6.05;;;;;;;;;;5047872;28;20475;-75
2021/12/07 17:47:26;;;;;;;22.60;6.45;;;;;;;;;;5061661;28;20088;-76